createdAt,value
2023-03-31T00:00:52.457Z,99340.19
2023-03-31T00:03:24.388Z,99346.63
2023-03-31T00:05:59.516Z,99339.97
2023-03-31T00:08:30.954Z,99331.97
2023-03-31T00:11:00.094Z,99333.63
2023-03-31T00:13:27.274Z,99335.25
2023-03-31T00:15:58.799Z,99325.63
2023-03-31T00:18:26.372Z,99332.59
2023-03-31T00:20:54.420Z,99334.38
2023-03-31T00:23:27.985Z,99332.84
2023-03-31T00:25:55.928Z,99324.47
2023-03-31T00:28:23.160Z,99347.16
2023-03-31T00:30:51.955Z,99336.69
2023-03-31T00:33:19.314Z,99337.03
2023-03-31T00:35:46.534Z,99336.44
2023-03-31T00:38:16.273Z,99328.50
2023-03-31T00:40:46.241Z,99322.69
2023-03-31T00:43:34.261Z,99317.81
2023-03-31T00:46:18.168Z,99317.13
2023-03-31T00:48:51.134Z,99313.63
2023-03-31T00:51:20.550Z,99325.72
2023-03-31T00:53:57.565Z,99319.81
2023-03-31T00:56:26.790Z,99325.97
2023-03-31T00:58:58.050Z,99330.41
2023-03-31T01:01:26.704Z,99322.97
2023-03-31T01:03:54.314Z,99317.84
2023-03-31T01:06:23.931Z,99310.88
2023-03-31T01:08:51.976Z,99309.09
2023-03-31T01:11:23.758Z,99300.63
2023-03-31T01:13:52.539Z,99302.25
2023-03-31T01:16:19.953Z,99304.47
2023-03-31T01:18:49.865Z,99297.47
2023-03-31T01:21:37.859Z,99300.94
2023-03-31T01:24:20.740Z,99290.59
2023-03-31T01:26:48.052Z,99288.50
2023-03-31T01:29:21.331Z,99288.00
2023-03-31T01:31:48.918Z,99286.81
2023-03-31T01:34:25.178Z,99281.16
2023-03-31T01:37:11.586Z,99276.75
2023-03-31T01:39:44.782Z,99277.34
2023-03-31T01:42:17.176Z,99282.81
2023-03-31T01:44:47.594Z,99282.38
2023-03-31T01:47:31.759Z,99274.25
2023-03-31T01:50:05.893Z,99276.25
2023-03-31T01:52:51.640Z,99275.75
2023-03-31T01:55:22.320Z,99276.13
2023-03-31T01:57:53.361Z,99280.44
2023-03-31T02:00:26.413Z,99276.34
2023-03-31T02:03:05.461Z,99276.34
2023-03-31T02:05:35.920Z,99278.09
2023-03-31T02:08:07.355Z,99274.84
2023-03-31T02:10:35.473Z,99259.03
2023-03-31T02:13:03.769Z,99276.25
2023-03-31T02:15:36.541Z,99264.41
2023-03-31T02:18:11.456Z,99266.28
2023-03-31T02:20:46.392Z,99272.53
2023-03-31T02:23:17.284Z,99269.88
2023-03-31T02:25:51.103Z,99265.44
2023-03-31T02:28:23.681Z,99265.91
2023-03-31T02:31:10.101Z,99270.91
2023-03-31T02:33:37.613Z,99272.28
2023-03-31T02:36:06.098Z,99272.06
2023-03-31T02:38:37.326Z,99274.28
2023-03-31T02:41:06.144Z,99285.53
2023-03-31T02:43:33.663Z,99281.22
2023-03-31T02:46:00.932Z,99287.13
2023-03-31T02:48:34.565Z,99287.84
2023-03-31T02:51:09.010Z,99293.44
2023-03-31T02:53:57.258Z,99294.13
2023-03-31T02:56:44.541Z,99293.63
2023-03-31T02:59:29.596Z,99287.25
2023-03-31T03:01:56.941Z,99291.84
2023-03-31T03:04:35.653Z,99278.03
2023-03-31T03:07:13.698Z,99278.72
2023-03-31T03:09:59.896Z,99281.97
2023-03-31T03:12:50.382Z,99276.59
2023-03-31T03:15:21.792Z,99279.16
2023-03-31T03:17:50.105Z,99278.47
2023-03-31T03:20:19.365Z,99288.00
2023-03-31T03:22:46.641Z,99279.06
2023-03-31T03:25:14.986Z,99276.63
2023-03-31T03:27:42.118Z,99261.41
2023-03-31T03:30:10.747Z,99253.59
2023-03-31T03:32:38.900Z,99249.56
2023-03-31T03:35:06.966Z,99242.78
2023-03-31T03:37:34.801Z,99239.19
2023-03-31T03:40:02.458Z,99238.25
2023-03-31T03:42:30.117Z,99241.28
2023-03-31T03:44:57.363Z,99236.59
2023-03-31T03:47:24.857Z,99226.56
2023-03-31T03:49:52.327Z,99219.84
2023-03-31T03:52:21.067Z,99210.78
2023-03-31T03:54:48.526Z,99204.06
2023-03-31T03:57:16.816Z,99211.19
2023-03-31T03:59:44.220Z,99207.69
2023-03-31T04:02:11.921Z,99217.81
2023-03-31T04:04:39.955Z,99213.88
2023-03-31T04:07:07.200Z,99222.41
2023-03-31T04:09:34.416Z,99205.88
2023-03-31T04:12:02.327Z,99206.72
2023-03-31T04:14:29.752Z,99203.22
2023-03-31T04:16:58.658Z,99209.03
2023-03-31T04:19:26.176Z,99207.28
2023-03-31T04:21:59.165Z,99208.34
2023-03-31T04:24:30.975Z,99198.00
2023-03-31T04:26:59.102Z,99201.13
2023-03-31T04:29:27.037Z,99201.38
2023-03-31T04:31:59.034Z,99202.97
2023-03-31T04:34:34.923Z,99200.41
2023-03-31T04:37:03.195Z,99197.16
2023-03-31T04:39:30.967Z,99200.63
2023-03-31T04:41:59.019Z,99198.03
2023-03-31T04:44:27.463Z,99192.44
2023-03-31T04:46:55.515Z,99199.28
2023-03-31T04:49:23.025Z,99209.16
2023-03-31T04:51:50.718Z,99193.56
2023-03-31T04:54:18.420Z,99187.97
2023-03-31T04:56:45.630Z,99195.84
2023-03-31T04:59:13.119Z,99195.50
2023-03-31T05:01:45.757Z,99190.53
2023-03-31T05:04:13.443Z,99190.22
2023-03-31T05:06:41.325Z,99186.59
2023-03-31T05:09:09.868Z,99191.13
2023-03-31T05:11:38.495Z,99188.75
2023-03-31T05:14:06.069Z,99194.69
2023-03-31T05:16:33.756Z,99195.41
2023-03-31T05:19:01.207Z,99187.50
2023-03-31T05:21:30.608Z,99200.72
2023-03-31T05:23:58.284Z,99195.63
2023-03-31T05:26:25.883Z,99198.88
2023-03-31T05:28:54.218Z,99198.03
2023-03-31T05:31:21.585Z,99182.13
2023-03-31T05:33:49.173Z,99168.53
2023-03-31T05:36:17.359Z,99170.84
2023-03-31T05:38:44.967Z,99161.41
2023-03-31T05:41:12.419Z,99168.13
2023-03-31T05:43:40.211Z,99164.91
2023-03-31T05:46:10.932Z,99167.59
2023-03-31T05:48:39.093Z,99163.66
2023-03-31T05:51:06.838Z,99158.53
2023-03-31T05:53:42.696Z,99147.25
2023-03-31T05:56:11.364Z,99147.25
2023-03-31T05:58:39.429Z,99145.06
2023-03-31T06:01:10.095Z,99145.25
2023-03-31T06:03:42.581Z,99139.34
2023-03-31T06:06:18.662Z,99140.44
2023-03-31T06:08:47.297Z,99148.41
2023-03-31T06:11:16.792Z,99141.91
2023-03-31T06:13:44.548Z,99142.41
2023-03-31T06:16:13.268Z,99147.94
2023-03-31T06:18:40.816Z,99148.75
2023-03-31T06:21:08.727Z,99149.66
2023-03-31T06:23:36.160Z,99156.81
2023-03-31T06:26:07.466Z,99154.22
2023-03-31T06:28:38.030Z,99148.38
2023-03-31T06:31:21.736Z,99145.31
2023-03-31T06:33:50.332Z,99147.78
2023-03-31T06:36:19.467Z,99143.03
2023-03-31T06:38:48.082Z,99146.00
2023-03-31T06:41:16.858Z,99142.38
2023-03-31T06:43:48.590Z,99153.44
2023-03-31T06:46:20.536Z,99142.22
2023-03-31T06:48:52.140Z,99142.56
2023-03-31T06:51:22.546Z,99139.81
2023-03-31T06:53:52.417Z,99152.63
2023-03-31T06:56:21.224Z,99149.28
2023-03-31T06:58:49.143Z,99142.44
2023-03-31T07:01:17.175Z,99140.13
2023-03-31T07:03:45.007Z,99131.25
2023-03-31T07:06:12.810Z,99128.06
2023-03-31T07:08:40.746Z,99125.22
2023-03-31T07:11:10.146Z,99138.41
2023-03-31T07:13:40.794Z,99128.59
2023-03-31T07:16:10.162Z,99132.16
2023-03-31T07:18:41.310Z,99141.78
2023-03-31T07:21:11.984Z,99133.25
2023-03-31T07:23:39.916Z,99131.31
2023-03-31T07:26:07.705Z,99130.94
2023-03-31T07:28:35.787Z,99127.91
2023-03-31T07:31:04.071Z,99129.13
2023-03-31T07:33:31.738Z,99123.31
2023-03-31T07:36:10.890Z,99120.75
2023-03-31T07:38:42.415Z,99128.41
2023-03-31T07:41:10.871Z,99120.44
2023-03-31T07:43:42.722Z,99118.03
2023-03-31T07:46:21.812Z,99123.59
2023-03-31T07:48:49.542Z,99117.72
2023-03-31T07:51:19.270Z,99122.28
2023-03-31T07:53:47.050Z,99118.91
2023-03-31T07:56:14.413Z,99113.91
2023-03-31T07:58:41.936Z,99117.09
2023-03-31T08:01:09.777Z,99107.03
2023-03-31T08:03:37.810Z,99108.16
2023-03-31T08:06:05.444Z,99106.09
2023-03-31T08:08:33.902Z,99101.72
2023-03-31T08:11:01.521Z,99108.44
2023-03-31T08:13:29.083Z,99098.66
2023-03-31T08:15:56.704Z,99094.88
2023-03-31T08:18:24.574Z,99093.66
2023-03-31T08:20:52.021Z,99090.94
2023-03-31T08:23:21.218Z,99087.28
2023-03-31T08:25:49.105Z,99076.50
2023-03-31T08:28:17.642Z,99082.81
2023-03-31T08:30:45.743Z,99068.94
2023-03-31T08:33:13.372Z,99064.38
2023-03-31T08:35:41.067Z,99063.19
2023-03-31T08:38:08.636Z,99066.84
2023-03-31T08:40:44.201Z,99060.47
2023-03-31T08:43:16.663Z,99056.41
2023-03-31T08:45:47.010Z,99048.19
2023-03-31T08:48:37.810Z,99045.63
2023-03-31T08:51:08.481Z,99051.09
2023-03-31T08:53:39.680Z,99045.75
2023-03-31T08:56:09.700Z,99037.66
2023-03-31T08:58:41.516Z,99042.78
2023-03-31T09:01:47.898Z,99040.53
2023-03-31T09:04:30.790Z,99035.66
2023-03-31T09:07:17.245Z,99034.78
2023-03-31T09:09:44.497Z,99033.38
2023-03-31T09:12:23.187Z,99040.66
2023-03-31T09:14:53.704Z,99043.16
2023-03-31T09:17:25.923Z,99041.91
2023-03-31T09:20:00.177Z,99033.13
2023-03-31T09:22:36.911Z,99023.06
2023-03-31T09:25:11.724Z,99018.06
2023-03-31T09:27:43.157Z,99020.56
2023-03-31T09:30:14.739Z,99014.00
2023-03-31T09:32:42.912Z,99005.22
2023-03-31T09:35:19.078Z,99002.00
2023-03-31T09:37:49.666Z,98995.91
2023-03-31T09:40:25.113Z,98987.78
2023-03-31T09:43:00.727Z,98980.84
2023-03-31T09:45:28.678Z,98982.16
2023-03-31T09:47:59.491Z,98987.44
2023-03-31T09:50:27.576Z,98976.81
2023-03-31T09:52:59.883Z,98973.47
2023-03-31T09:55:39.548Z,98974.28
2023-03-31T09:58:12.259Z,98970.41
2023-03-31T10:00:41.877Z,98973.88
2023-03-31T10:03:14.423Z,98966.81
2023-03-31T10:05:52.987Z,98967.81
2023-03-31T10:08:27.368Z,98973.69
2023-03-31T10:10:57.692Z,98961.78
2023-03-31T10:13:30.159Z,98966.56
2023-03-31T10:16:08.475Z,98963.66
2023-03-31T10:18:37.630Z,98965.59
2023-03-31T10:21:06.873Z,98962.19
2023-03-31T10:23:35.841Z,98956.53
2023-03-31T10:26:04.039Z,98954.63
2023-03-31T10:28:34.402Z,98950.19
2023-03-31T10:31:03.154Z,98944.69
2023-03-31T10:33:35.037Z,98936.38
2023-03-31T10:36:07.294Z,98925.91
2023-03-31T10:38:40.789Z,98931.84
2023-03-31T10:41:08.802Z,98926.19
2023-03-31T10:43:43.498Z,98932.75
2023-03-31T10:46:12.567Z,98931.25
2023-03-31T10:48:45.123Z,98942.03
2023-03-31T10:51:26.827Z,98938.72
2023-03-31T10:53:55.842Z,98937.47
2023-03-31T10:56:29.437Z,98926.75
2023-03-31T10:59:12.804Z,98928.22
2023-03-31T11:02:01.135Z,98920.50
2023-03-31T11:04:41.171Z,98920.69
2023-03-31T11:07:29.595Z,98913.97
2023-03-31T11:10:00.065Z,98909.00
2023-03-31T11:12:52.555Z,98903.59
2023-03-31T11:15:32.739Z,98899.41
2023-03-31T11:18:21.130Z,98892.69
2023-03-31T11:20:51.443Z,98896.56
2023-03-31T11:23:24.676Z,98896.56
2023-03-31T11:25:58.055Z,98896.13
2023-03-31T11:28:25.413Z,98898.75
2023-03-31T11:30:59.259Z,98894.63
2023-03-31T11:33:26.575Z,98882.25
2023-03-31T11:36:22.402Z,98877.44
2023-03-31T11:38:56.346Z,98868.84
2023-03-31T11:41:30.262Z,98868.16
2023-03-31T11:44:05.981Z,98858.25
2023-03-31T11:46:42.406Z,98855.22
2023-03-31T11:49:27.875Z,98854.47
2023-03-31T11:51:56.986Z,98860.91
2023-03-31T11:54:43.546Z,98858.13
2023-03-31T11:57:16.877Z,98855.19
2023-03-31T11:59:47.975Z,98852.22
2023-03-31T12:02:21.623Z,98854.41
2023-03-31T12:04:52.617Z,98849.34
2023-03-31T12:07:24.062Z,98850.78
2023-03-31T12:09:51.495Z,98845.56
2023-03-31T12:12:23.091Z,98852.78
2023-03-31T12:14:53.539Z,98852.91
2023-03-31T12:17:26.095Z,98851.94
2023-03-31T12:19:59.743Z,98849.81
2023-03-31T12:22:36.264Z,98845.47
2023-03-31T12:25:03.893Z,98842.00
2023-03-31T12:27:37.604Z,98832.22
2023-03-31T12:30:07.363Z,98840.38
2023-03-31T12:32:37.162Z,98830.91
2023-03-31T12:35:07.506Z,98818.13
2023-03-31T12:37:53.401Z,98825.34
2023-03-31T12:40:26.901Z,98817.44
2023-03-31T12:43:17.619Z,98813.91
2023-03-31T12:46:08.336Z,98812.28
2023-03-31T12:48:55.538Z,98819.06
2023-03-31T12:51:23.042Z,98818.25
2023-03-31T12:54:07.720Z,98819.66
2023-03-31T12:57:10.855Z,98812.22
2023-03-31T12:59:42.414Z,98808.47
2023-03-31T13:02:09.945Z,98801.50
2023-03-31T13:04:37.958Z,98803.09
2023-03-31T13:07:17.398Z,98802.94
2023-03-31T13:09:53.058Z,98799.63
2023-03-31T13:12:23.027Z,98795.19
2023-03-31T13:14:54.611Z,98795.53
2023-03-31T13:17:25.391Z,98787.22
2023-03-31T13:19:53.903Z,98795.25
2023-03-31T13:22:32.892Z,98793.44
2023-03-31T13:25:18.870Z,98802.41
2023-03-31T13:27:50.261Z,98789.34
2023-03-31T13:30:36.690Z,98792.88
2023-03-31T13:33:19.300Z,98788.69
2023-03-31T13:35:48.212Z,98780.63
2023-03-31T13:38:35.172Z,98780.63
2023-03-31T13:41:21.734Z,98783.25
2023-03-31T13:43:58.982Z,98775.38
2023-03-31T13:46:32.295Z,98766.41
2023-03-31T13:49:08.396Z,98761.75
2023-03-31T13:51:56.060Z,98768.81
2023-03-31T13:54:29.696Z,98768.09
2023-03-31T13:57:23.186Z,98768.09
2023-03-31T14:00:17.450Z,98770.84
2023-03-31T14:03:00.758Z,98768.09
2023-03-31T14:05:39.889Z,98771.31
2023-03-31T14:08:15.008Z,98769.38
2023-03-31T14:10:43.286Z,98766.16
2023-03-31T14:13:17.018Z,98754.41
2023-03-31T14:15:56.126Z,98759.66
2023-03-31T14:18:29.869Z,98754.78
2023-03-31T14:21:06.506Z,98751.59
2023-03-31T14:23:41.097Z,98753.84
2023-03-31T14:26:16.414Z,98751.94
2023-03-31T14:28:49.801Z,98744.50
2023-03-31T14:31:21.680Z,98748.88
2023-03-31T14:33:49.246Z,98743.88
2023-03-31T14:36:22.728Z,98739.09
2023-03-31T14:38:50.115Z,98743.41
2023-03-31T14:41:21.544Z,98741.59
2023-03-31T14:43:51.224Z,98740.66
2023-03-31T14:46:20.718Z,98741.66
2023-03-31T14:48:49.310Z,98734.94
2023-03-31T14:51:35.031Z,98736.69
2023-03-31T14:54:02.887Z,98731.22
2023-03-31T14:56:36.374Z,98744.81
2023-03-31T14:59:04.346Z,98740.00
2023-03-31T15:01:34.629Z,98748.66
2023-03-31T15:04:07.351Z,98732.72
2023-03-31T15:06:34.993Z,98736.38
2023-03-31T15:09:04.119Z,98730.59
2023-03-31T15:11:32.154Z,98735.09
2023-03-31T15:14:04.997Z,98738.19
2023-03-31T15:16:33.321Z,98741.25
2023-03-31T15:19:05.203Z,98745.63
2023-03-31T15:21:36.929Z,98740.69
2023-03-31T15:24:04.883Z,98735.91
2023-03-31T15:26:41.584Z,98737.88
2023-03-31T15:29:13.036Z,98731.44
2023-03-31T15:31:41.228Z,98725.25
2023-03-31T15:34:12.984Z,98735.34
2023-03-31T15:36:41.489Z,98733.06
2023-03-31T15:39:09.465Z,98735.44
2023-03-31T15:41:37.333Z,98737.38
2023-03-31T15:44:27.486Z,98729.00
2023-03-31T15:46:58.014Z,98730.09
2023-03-31T15:49:26.599Z,98730.25
2023-03-31T15:51:55.615Z,98740.38
2023-03-31T15:54:41.099Z,98733.47
2023-03-31T15:57:10.049Z,98737.81
2023-03-31T15:59:54.739Z,98730.25
2023-03-31T16:02:25.371Z,98740.38
2023-03-31T16:04:58.424Z,98736.03
2023-03-31T16:07:31.931Z,98729.16
2023-03-31T16:10:02.640Z,98736.72
2023-03-31T16:12:31.041Z,98740.25
2023-03-31T16:15:02.765Z,98736.03
2023-03-31T16:17:30.464Z,98731.06
2023-03-31T16:20:10.992Z,98727.69
2023-03-31T16:22:40.991Z,98735.53
2023-03-31T16:25:09.717Z,98735.22
2023-03-31T16:27:44.193Z,98730.91
2023-03-31T16:30:13.859Z,98731.72
2023-03-31T16:33:00.857Z,98729.66
2023-03-31T16:35:43.564Z,98734.63
2023-03-31T16:38:13.027Z,98730.16
2023-03-31T16:40:42.067Z,98733.38
2023-03-31T16:43:30.800Z,98728.75
2023-03-31T16:45:59.501Z,98726.38
2023-03-31T16:48:27.805Z,98720.44
2023-03-31T16:50:56.473Z,98730.06
2023-03-31T16:53:26.708Z,98723.59
2023-03-31T16:55:54.517Z,98724.56
2023-03-31T16:58:24.332Z,98724.56
2023-03-31T17:00:52.335Z,98720.09
2023-03-31T17:03:20.718Z,98727.81
2023-03-31T17:05:51.163Z,98727.81
2023-03-31T17:08:19.720Z,98730.38
2023-03-31T17:10:54.431Z,98734.38
2023-03-31T17:13:21.812Z,98732.78
2023-03-31T17:15:49.642Z,98722.50
2023-03-31T17:18:18.487Z,98726.69
2023-03-31T17:20:46.264Z,98725.06
2023-03-31T17:23:15.258Z,98722.94
2023-03-31T17:25:49.710Z,98720.03
2023-03-31T17:28:17.374Z,98722.38
2023-03-31T17:30:48.169Z,98717.72
2023-03-31T17:33:16.813Z,98715.31
2023-03-31T17:35:44.616Z,98713.34
2023-03-31T17:38:14.708Z,98709.03
2023-03-31T17:40:43.350Z,98708.38
2023-03-31T17:43:11.388Z,98704.38
2023-03-31T17:45:39.653Z,98706.28
2023-03-31T17:48:07.361Z,98710.75
2023-03-31T17:50:35.060Z,98703.84
2023-03-31T17:53:08.943Z,98698.84
2023-03-31T17:55:38.450Z,98703.78
2023-03-31T17:58:08.572Z,98709.53
2023-03-31T18:00:36.250Z,98696.03
2023-03-31T18:03:04.100Z,98700.34
2023-03-31T18:05:33.675Z,98701.16
2023-03-31T18:08:01.278Z,98698.44
2023-03-31T18:10:29.396Z,98699.25
2023-03-31T18:12:59.489Z,98695.72
2023-03-31T18:15:26.907Z,98697.03
2023-03-31T18:17:54.945Z,98695.78
2023-03-31T18:20:23.331Z,98691.81
2023-03-31T18:22:51.588Z,98693.13
2023-03-31T18:25:18.928Z,98684.47
2023-03-31T18:27:48.151Z,98687.66
2023-03-31T18:30:16.362Z,98686.56
2023-03-31T18:32:43.823Z,98689.13
2023-03-31T18:35:11.797Z,98684.00
2023-03-31T18:37:39.504Z,98680.59
2023-03-31T18:40:08.038Z,98681.44
2023-03-31T18:42:36.209Z,98678.84
2023-03-31T18:45:03.999Z,98682.75
2023-03-31T18:47:31.878Z,98674.59
2023-03-31T18:49:59.295Z,98673.31
2023-03-31T18:52:27.362Z,98669.13
2023-03-31T18:54:54.836Z,98672.69
2023-03-31T18:57:22.349Z,98674.44
2023-03-31T18:59:49.855Z,98675.38
2023-03-31T19:02:18.293Z,98670.38
2023-03-31T19:04:45.961Z,98669.88
2023-03-31T19:07:16.765Z,98661.38
2023-03-31T19:09:44.461Z,98662.19
2023-03-31T19:12:12.611Z,98657.19
2023-03-31T19:14:41.360Z,98655.72
2023-03-31T19:17:09.065Z,98654.41
2023-03-31T19:19:36.857Z,98651.69
2023-03-31T19:22:04.190Z,98652.50
2023-03-31T19:24:31.773Z,98649.00
2023-03-31T19:26:59.223Z,98651.56
2023-03-31T19:29:28.137Z,98650.91
2023-03-31T19:31:56.996Z,98652.81
2023-03-31T19:34:24.558Z,98647.03
2023-03-31T19:36:51.883Z,98651.19
2023-03-31T19:39:19.505Z,98646.88
2023-03-31T19:41:47.128Z,98644.28
2023-03-31T19:44:14.754Z,98646.72
2023-03-31T19:46:42.221Z,98643.03
2023-03-31T19:49:09.689Z,98643.84
2023-03-31T19:51:37.346Z,98643.19
2023-03-31T19:54:04.854Z,98641.56
2023-03-31T19:56:32.748Z,98637.41
2023-03-31T19:59:00.390Z,98637.69
2023-03-31T20:01:28.341Z,98636.75
2023-03-31T20:03:58.980Z,98636.44
2023-03-31T20:06:31.884Z,98643.84
2023-03-31T20:09:03.076Z,98642.88
2023-03-31T20:11:32.352Z,98640.31
2023-03-31T20:14:00.166Z,98638.72
2023-03-31T20:16:29.450Z,98634.34
2023-03-31T20:18:58.456Z,98640.31
2023-03-31T20:21:27.834Z,98632.75
2023-03-31T20:23:55.692Z,98636.16
2023-03-31T20:26:25.425Z,98628.44
2023-03-31T20:28:55.149Z,98631.00
2023-03-31T20:31:24.224Z,98626.81
2023-03-31T20:33:52.621Z,98624.41
2023-03-31T20:36:24.838Z,98625.38
2023-03-31T20:38:53.290Z,98615.88
2023-03-31T20:41:21.641Z,98622.00
2023-03-31T20:43:50.715Z,98623.59
2023-03-31T20:46:18.522Z,98615.72
2023-03-31T20:48:51.456Z,98619.09
2023-03-31T20:51:20.526Z,98620.72
2023-03-31T20:53:48.883Z,98615.44
2023-03-31T20:56:24.150Z,98619.75
2023-03-31T20:58:53.736Z,98615.72
2023-03-31T21:01:21.774Z,98616.03
2023-03-31T21:03:49.452Z,98619.56
2023-03-31T21:06:18.690Z,98612.66
2023-03-31T21:08:50.678Z,98610.91
2023-03-31T21:11:18.144Z,98614.94
2023-03-31T21:13:46.396Z,98613.81
2023-03-31T21:16:14.045Z,98608.66
2023-03-31T21:18:41.794Z,98613.03
2023-03-31T21:21:11.193Z,98606.41
2023-03-31T21:23:41.160Z,98621.34
2023-03-31T21:26:09.663Z,98612.97
2023-03-31T21:28:38.119Z,98609.25
2023-03-31T21:31:07.237Z,98606.97
2023-03-31T21:33:36.102Z,98614.16
2023-03-31T21:36:04.397Z,98613.84
2023-03-31T21:38:33.009Z,98610.44
2023-03-31T21:41:08.322Z,98613.34
2023-03-31T21:43:36.090Z,98610.91
2023-03-31T21:46:04.026Z,98616.84
2023-03-31T21:48:31.318Z,98619.91
2023-03-31T21:51:00.943Z,98613.19
2023-03-31T21:53:29.488Z,98611.69
2023-03-31T21:55:57.582Z,98613.34
2023-03-31T21:58:27.602Z,98608.19
2023-03-31T22:00:55.753Z,98609.63
2023-03-31T22:03:27.783Z,98605.31
2023-03-31T22:05:56.887Z,98607.72
2023-03-31T22:08:24.738Z,98600.84
2023-03-31T22:10:53.160Z,98608.69
2023-03-31T22:13:21.459Z,98608.69
2023-03-31T22:15:49.353Z,98607.59
2023-03-31T22:18:19.687Z,98606.78
2023-03-31T22:20:47.069Z,98601.94
2023-03-31T22:23:15.204Z,98596.00
2023-03-31T22:25:42.438Z,98600.19
2023-03-31T22:28:09.608Z,98601.16
2023-03-31T22:30:37.064Z,98600.03
2023-03-31T22:33:05.009Z,98594.88
2023-03-31T22:35:32.629Z,98588.81
2023-03-31T22:38:00.032Z,98597.75
2023-03-31T22:40:30.313Z,98591.97
2023-03-31T22:42:58.612Z,98588.97
2023-03-31T22:45:26.104Z,98588.81
2023-03-31T22:47:53.686Z,98583.66
2023-03-31T22:50:21.273Z,98581.09
2023-03-31T22:52:49.197Z,98587.06
2023-03-31T22:55:17.039Z,98585.13
2023-03-31T22:57:44.970Z,98582.69
2023-03-31T23:00:12.970Z,98577.56
2023-03-31T23:02:40.730Z,98578.53
2023-03-31T23:05:08.266Z,98570.81
2023-03-31T23:07:36.279Z,98570.81
2023-03-31T23:10:03.816Z,98568.09
2023-03-31T23:12:31.562Z,98570.81
2023-03-31T23:14:58.930Z,98562.31
2023-03-31T23:17:26.639Z,98569.19
2023-03-31T23:19:54.164Z,98565.03
2023-03-31T23:22:22.019Z,98563.41
2023-03-31T23:24:49.669Z,98573.56
2023-03-31T23:27:17.975Z,98567.75
2023-03-31T23:29:46.146Z,98564.69
2023-03-31T23:32:14.288Z,98567.38
2023-03-31T23:34:42.521Z,98574.97
2023-03-31T23:37:10.614Z,98574.81
2023-03-31T23:39:39.085Z,98569.66
2023-03-31T23:42:07.146Z,98572.25
2023-03-31T23:44:37.212Z,98570.63
2023-03-31T23:47:05.371Z,98573.34
2023-03-31T23:49:32.768Z,98570.94
2023-03-31T23:52:00.145Z,98571.88
2023-03-31T23:54:27.821Z,98570.13
2023-03-31T23:56:56.137Z,98570.63
2023-03-31T23:59:23.719Z,98568.69
